Jack C. Davis Observatory, Carson City, Nevada Weather observations

Data are for observation ending at time listed.
 Day   Time    Ave.   Ave.  Ave.  Vector   Max.   Stn.    Total    Solar   Ave.  
  of    of     Air    Rel.  Wind   Wind    Wind   Baro.  Precip.   Rad.    Soil  
Year   Day     Temp.  Hum.  Speed  Dir.    Gust   Pres.                    Temp. 
2015   (PST)    F      %     mph   deg.    mph     mb.     in.     W/m2     F   
------------------------------------------------------------------------------
  58   19:20   34.2    91    5.7   220     10.6   834.5    0.01       0    999.0
  58   19:30   34.5    91    5.9   236     11.6   834.5    0.00       0    999.0
  58   19:40   35.0    90    3.0    49      5.7   834.5    0.00       0    999.0
  58   19:50   35.2    89    3.0    69      6.8   834.4    0.00       0    999.0
  58   20:00   35.1    89    2.1   164      4.3   834.3    0.00       0    999.0
  58   20:10   34.5    91    3.0   198      4.6   834.2    0.00       0    999.0
  58   20:20   34.1    91    3.5   253      7.1   834.1    0.00       0    999.0
  58   20:30   34.1    91    3.7   269      6.2   834.1    0.00       0    999.0
  58   20:40   34.0    90    1.8   286      4.8   834.2    0.00       0    999.0
  58   20:50   34.1    91    2.1   311      3.3   834.2    0.00       0    999.0
  58   21:00   34.1    90    4.8   235      7.3   834.1    0.00       0    999.0
  58   21:10   34.8    86    3.9   239      8.2   834.1    0.00       0    999.0
  58   21:20   34.5    89    2.9    38      6.5   834.0    0.00       0    999.0
  58   21:30   34.2    90    2.3   162      5.4   833.9    0.00       0    999.0
  58   21:40   34.2    89    3.5    67      6.2   833.9    0.00       0    999.0
  58   21:50   34.2    89    2.5    59      4.9   834.1    0.00       0    999.0
  58   22:00   33.9    90    3.3    59      5.2   834.1    0.00       0    999.0
  58   22:10   33.8    90    2.7   294      4.5   834.1    0.00       0    999.0
  58   22:20   33.9    89    3.3   289      5.8   834.0    0.00       0    999.0
  58   22:30   34.0    88    2.8   284      5.6   834.0    0.00       0    999.0
  58   22:40   33.6    89    2.6   293      6.1   834.0    0.00       0    999.0
  58   22:50   33.6    89    3.9   239      5.4   833.9    0.00       0    999.0
  58   23:00   34.0    87    3.0   276      4.3   833.9    0.00       0    999.0
  58   23:10   34.3    86    2.1   276      2.7   833.9    0.00       0    999.0
  58   23:20   34.4    85    3.4   234      4.6   833.9    0.00       0    999.0
  58   23:30   34.2    86    5.3   222      9.0   834.0    0.00       0    999.0
  58   23:40   33.2    89    6.5   253      9.5   834.0    0.00       0    999.0
  58   23:50   32.5    92    6.0   234      8.1   834.0    0.00       0    999.0
  59    0:00   32.3    93    4.4   224      8.7   833.9    0.00       0    999.0
  59    0:10   32.3    93    2.8   248      4.6   833.8    0.00       0    999.0
  59    0:20   32.2    94    1.1   253      3.7   833.8    0.00       0    999.0
  59    0:30   32.3    94    0.0     0      0.0   833.7    0.00       0    999.0
  59    0:40   32.4    94    0.0     0      0.0   833.7    0.00       0    999.0
  59    0:50   32.4    94    0.0     0      0.0   833.7    0.00       0    999.0
  59    1:00   32.3    94    0.0     0      0.0   833.7    0.00       0    999.0
  59    1:10   32.2    94    0.0     0      0.0   833.7    0.00       0    999.0
  59    1:20   32.1    94    0.0     0      0.0   833.7    0.00       0    999.0
  59    1:30   32.1    94    0.0     0      0.0   833.7    0.00       0    999.0
  59    1:40   32.1    95    0.0     0      0.0   833.7    0.00       0    999.0
  59    1:50   32.0    95    0.0     0      0.0   833.7    0.00       0    999.0
  59    2:00   32.0    95    0.0     0      0.0   833.7    0.00       0    999.0
  59    2:10   32.0    95    0.0     0      0.0   833.7    0.00       0    999.0
  59    2:20   32.0    95    0.0     0      0.0   833.6    0.00       0    999.0
  59    2:30   31.9    95    0.0     0      0.0   833.6    0.00       0    999.0
  59    2:40   31.9    95    0.0     0      0.0   833.6    0.00       0    999.0
  59    2:50   32.1    95    0.0     0      0.0   833.5    0.00       0    999.0
  59    3:00   32.1    95    0.0     0      0.0   833.5    0.00       0    999.0
  59    3:10   32.2    95    0.0     0      0.0   833.5    0.00       0    999.0
  59    3:20   32.1    95    0.0     0      0.0   833.2    0.00       0    999.0
  59    3:30   32.1    95    0.0     0      0.0   833.2    0.00       0    999.0
  59    3:40   32.0    95    0.0     0      0.0   833.2    0.00       0    999.0
  59    3:50   32.0    95    0.0     0      0.0   833.3    0.00       0    999.0
  59    4:00   31.9    95    0.0     0      0.0   833.3    0.00       0    999.0
  59    4:10   31.8    95    0.0     0      0.0   833.2    0.00       0    999.0
  59    4:20   31.7    95    0.0     0      0.0   833.3    0.00       0    999.0
  59    4:30   31.6    95    0.0     0      0.0   833.4    0.00       0    999.0
  59    4:40   31.5    96    0.0     0      0.0   833.4    0.00       0    999.0
  59    4:50   31.6    96    0.0     0      0.0   833.5    0.00       0    999.0
  59    5:00   31.7    96    0.0     0      0.0   833.5    0.00       0    999.0
  59    5:10   31.8    96    0.0     0      0.0   833.5    0.00       0    999.0
  59    5:20   31.8    96    0.0     0      0.0   833.6    0.00       0    999.0
  59    5:30   31.6    96    0.0     0      0.0   833.7    0.00       0    999.0
  59    5:40   31.3    96    0.0     0      0.0   833.6    0.00       0    999.0
  59    5:50   31.2    96    0.0     0      0.0   833.7    0.00       0    999.0
  59    6:00   31.2    96    0.0     0      0.0   833.8    0.00       0    999.0
  59    6:10   31.3    96    0.0     0      0.0   833.8    0.00       0    999.0
  59    6:20   31.2    96    0.0     0      0.0   833.9    0.00       0    999.0
  59    6:30   31.2    96    0.0     0      0.0   834.0    0.00       0    999.0
  59    6:40   31.2    96    0.0     0      0.0   834.0    0.00       0    999.0
  59    6:50   31.2    95    0.0     0      0.0   834.1    0.00       1    999.0
  59    7:00   31.3    95    0.0     0      0.0   834.2    0.00       2    999.0
  59    7:10   31.5    95    0.0     0      0.0   834.3    0.00       3    999.0
  59    7:20   31.6    95    0.0     0      0.0   834.5    0.00       4    999.0
  59    7:30   31.9    95    0.0     0      0.0   834.7    0.00       5    999.0
  59    7:40   32.1    94    0.0     0      0.0   834.8    0.00       7    999.0
  59    7:50   32.5    94    0.0     0      0.0   835.0    0.00       8    999.0
  59    8:00   33.0    94    0.0   309      1.1   835.1    0.00       9    999.0
  59    8:10   32.8    93    0.0     0      0.0   835.3    0.00       8    999.0
  59    8:20   33.1    93    0.0     0      0.0   835.5    0.00       8    999.0
  59    8:30   33.4    92    0.0   293      0.9   835.6    0.00      10    999.0
  59    8:40   34.4    92    0.0     0      0.0   835.7    0.00      10    999.0
  59    8:50   34.4    90    0.0   293      0.5   835.8    0.00       9    999.0
  59    9:00   33.9    90    0.0     0      0.0   835.9    0.00      10    999.0
  59    9:10   34.2    89    0.0     0      0.0   836.0    0.00      10    999.0
  59    9:20   34.1    89    0.0   302      0.6   836.1    0.00      13    999.0
  59    9:30   34.5    88    1.3   314      4.4   836.2    0.00      22    999.0
  59    9:40   34.9    86    3.0   330      5.1   836.2    0.00      23    999.0
  59    9:50   34.7    86    3.7   316      6.8   836.3    0.00      21    999.0
  59   10:00   33.7    88    3.8   332      8.7   836.5    0.00      16    999.0
  59   10:10   33.3    90    3.3   326      6.3   836.6    0.00      20    999.0
  59   10:20   34.4    88    2.8   321      6.2   836.7    0.00      26    999.0
  59   10:30   34.4    86    5.4   325      9.5   836.8    0.00      30    999.0
  59   10:40   34.2    86    5.6   323      9.9   836.8    0.00      37    999.0
  59   10:50   34.5    85    4.8   329     11.1   837.0    0.00      41    999.0
  59   11:00   34.7    85    5.0   320      9.1   837.1    0.00      40    999.0
  59   11:10   34.2    86    6.5   317      9.8   837.2    0.00      43    999.0
  59   11:20   34.3    85    6.2   313     10.1   837.2    0.00      46    999.0
  59   11:30   34.5    85    5.9   312      9.8   837.3    0.00      46    999.0
  59   11:40   34.2    85    6.7   312     10.3   837.3    0.00      47    999.0
  59   11:50   33.5    87    6.8   301      9.8   837.4    0.00      46    999.0
  59   12:00   33.8    87    5.9   310      9.2   837.3    0.00      48    999.0
  59   12:10   34.9    85    5.2   309      8.5   837.4    0.00      54    999.0
  59   12:20   35.3    83    5.6   320      9.2   837.3    0.00      61    999.0
  59   12:30   36.0    80    5.1   325      8.3   837.3    0.00      62    999.0
  59   12:40   36.3    80    4.5   317      7.3   837.4    0.00      61    999.0
  59   12:50   35.9    80    4.4   305      7.9   837.4    0.00      59    999.0
  59   13:00   34.9    82    4.9   324     11.0   837.4    0.00      57    999.0
  59   13:10   34.9    84    5.0   326      8.4   837.5    0.00      65    999.0
  59   13:20   34.9    84    4.8   322      7.7   837.5    0.00      61    999.0
  59   13:30   35.0    84    3.7   343      9.3   837.5    0.00      57    999.0
  59   13:40   34.8    84    4.5   341     11.2   837.4    0.00      80    999.0
  59   13:50   35.4    82    6.1   326     11.7   837.5    0.02     124    999.0
  59   14:00   35.6    82    5.8   330     11.4   837.5    0.10     126    999.0
  59   14:10   36.8    79    4.1   339      9.2   837.6    0.19     138    999.0
  59   14:20   36.1    80    4.3   343     10.2   837.6    0.03     117    999.0
  59   14:30   36.1    80    4.2   349     11.7   837.6    0.03     137    999.0
  59   14:40   36.0    81    4.3   343     10.8   837.7    0.02     188    999.0
  59   14:50   35.7    81    8.0   325     13.6   837.8    0.03     222    999.0
  59   15:00   35.9    81    6.4   324     13.5   837.9    0.02     229    999.0
  59   15:10   36.2    80    4.8   340     10.4   838.0    0.00     229    999.0
  59   15:20   36.1    80    4.4   346     13.1   838.1    0.00     254    999.0
  59   15:30   36.1    79    6.0   340     13.1   838.1    0.00     283    999.0
  59   15:40   35.3    79    5.7   342     16.3   838.2    0.00     180    999.0
  59   15:50   35.0    81    4.6   351     13.4   838.3    0.00     188    999.0
  59   16:00   34.8    82    6.1   337     13.3   838.4    0.00     181    999.0
  59   16:10   34.7    83    5.8   335     11.8   838.4    0.00     178    999.0
  59   16:20   34.7    82    8.0   318     13.6   838.4    0.00     167    999.0
  59   16:30   34.7    81    7.5   329     14.7   838.4    0.00     128    999.0
  59   16:40   34.6    81    7.5   333     13.6   838.4    0.00     118    999.0
  59   16:50   34.7    80    7.2   337     14.0   838.5    0.00     107    999.0
  59   17:00   34.7    80    5.6   341     13.2   838.6    0.00      75    999.0
  59   17:10   34.5    81    6.2   338     14.2   838.6    0.00      36    999.0
  59   17:20   34.1    84    5.3   345     12.2   838.8    0.00      18    999.0
  59   17:30   33.9    85    5.0   346     11.2   839.0    0.00       8    999.0
  59   17:40   33.6    87    5.8   339     11.7   839.1    0.00       5    999.0
  59   17:50   33.3    88    5.1   336     11.3   839.2    0.00       2    999.0
  59   18:00   33.0    89    5.2   334     11.8   839.3    0.00       0    999.0
  59   18:10   32.8    91    6.7   328     11.4   839.4    0.00       0    999.0
  59   18:20   32.6    92    6.3   326     11.5   839.5    0.00       0    999.0
  59   18:30   32.5    93    6.0   328     12.4   839.6    0.00       0    999.0
  59   18:40   32.5    93    4.3   334      9.2   839.7    0.00       0    999.0
  59   18:50   32.5    93    3.3   346      9.0   839.9    0.00       0    999.0
  59   19:00   32.4    93    3.3   354      9.1   839.9    0.00       0    999.0
  59   19:10   32.3    93    3.1   345      8.2   840.0    0.00       0    999.0

Return to Yerington, Nevada graphs page.


Western Regional Climate Center,wrcc@dri.edu